Time;durP1;ratioP1;P1;durP2;ratioP2;P2;SDS_P1;SDS_P2;PMS_P1;PMS_P2;Temp;Humidity;BMP_temperature;BMP_pressure;BME280_temperature;BME280_humidity;BME280_pressure;Samples;Min_cycle;Max_cycle;Signal;HPM_P1;HPM_P2
2022/05/06 00:00:02;;;;;;;21.50;15.87;;;;;;;;;;4949385;28;20483;-74
2022/05/06 00:02:28;;;;;;;18.37;14.40;;;;;;;;;;4959554;28;20186;-74
2022/05/06 00:04:53;;;;;;;22.53;15.17;;;;;;;;;;4951347;28;20198;-74
2022/05/06 00:07:18;;;;;;;23.63;14.57;;;;;;;;;;4948253;28;20252;-74
2022/05/06 00:09:44;;;;;;;21.90;13.50;;;;;;;;;;4947673;28;20197;-74
2022/05/06 00:12:10;;;;;;;20.37;14.70;;;;;;;;;;4955583;28;20177;-74
2022/05/06 00:14:36;;;;;;;20.43;13.50;;;;;;;;;;4958569;28;20287;-74
2022/05/06 00:17:04;;;;;;;23.27;15.60;;;;;;;;;;4954130;28;20282;-74
2022/05/06 00:19:30;;;;;;;21.97;16.57;;;;;;;;;;4950785;28;20186;-74
2022/05/06 00:21:55;;;;;;;23.60;16.30;;;;;;;;;;4949413;28;20259;-75
2022/05/06 00:24:20;;;;;;;20.23;15.33;;;;;;;;;;4971603;28;20182;-74
2022/05/06 00:26:45;;;;;;;19.57;16.23;;;;;;;;;;4947046;28;20218;-74
2022/05/06 00:29:11;;;;;;;23.63;16.83;;;;;;;;;;4947581;28;20258;-74
2022/05/06 00:31:36;;;;;;;26.47;16.77;;;;;;;;;;4953648;28;20181;-74
2022/05/06 00:34:01;;;;;;;20.27;15.37;;;;;;;;;;4957831;28;20256;-74
2022/05/06 00:36:26;;;;;;;20.60;16.80;;;;;;;;;;4953193;28;20242;-74
2022/05/06 00:38:52;;;;;;;20.87;16.13;;;;;;;;;;4950010;28;20234;-74
2022/05/06 00:41:17;;;;;;;23.63;16.40;;;;;;;;;;4949199;28;20211;-75
2022/05/06 00:43:43;;;;;;;23.90;17.17;;;;;;;;;;4949936;28;20181;-74
2022/05/06 00:46:11;;;;;;;22.00;15.50;;;;;;;;;;4953252;28;20210;-74
2022/05/06 00:48:37;;;;;;;22.20;14.13;;;;;;;;;;4949567;28;20275;-74
2022/05/06 00:51:03;;;;;;;19.23;14.47;;;;;;;;;;4963238;28;20209;-74
2022/05/06 00:53:28;;;;;;;19.73;15.03;;;;;;;;;;4957076;28;20173;-74
2022/05/06 00:55:56;;;;;;;23.70;16.77;;;;;;;;;;4953605;28;20187;-74
2022/05/06 00:58:23;;;;;;;20.03;14.50;;;;;;;;;;4950503;28;20224;-74
2022/05/06 01:00:48;;;;;;;24.40;15.70;;;;;;;;;;4955500;28;20183;-74
2022/05/06 01:03:14;;;;;;;25.53;16.27;;;;;;;;;;4956849;28;20233;-74
2022/05/06 01:05:39;;;;;;;17.73;14.37;;;;;;;;;;4961891;28;20205;-74
2022/05/06 01:08:05;;;;;;;20.03;13.97;;;;;;;;;;4955347;28;20179;-74
2022/05/06 01:10:30;;;;;;;21.03;15.10;;;;;;;;;;4951753;28;20191;-74
2022/05/06 01:15:59;;;;;;;22.93;16.13;;;;;;;;;;4956160;28;20204;-74
2022/05/06 01:18:24;;;;;;;24.33;15.40;;;;;;;;;;4953106;28;20186;-74
2022/05/06 01:20:51;;;;;;;19.13;15.50;;;;;;;;;;4950825;28;20240;-74
2022/05/06 01:23:16;;;;;;;20.57;14.03;;;;;;;;;;4957129;28;20212;-75
2022/05/06 01:25:42;;;;;;;17.13;13.57;;;;;;;;;;4958532;28;20237;-74
2022/05/06 01:28:09;;;;;;;21.27;14.70;;;;;;;;;;4952673;28;20265;-74
2022/05/06 01:30:38;;;;;;;22.30;15.23;;;;;;;;;;4953393;28;20178;-74
2022/05/06 01:33:05;;;;;;;19.97;14.00;;;;;;;;;;4953844;28;20242;-74
2022/05/06 01:35:32;;;;;;;22.70;14.43;;;;;;;;;;4952763;28;20185;-74
2022/05/06 01:38:00;;;;;;;20.40;15.20;;;;;;;;;;4951407;28;20236;-74
2022/05/06 01:40:27;;;;;;;25.80;16.10;;;;;;;;;;4955587;28;20209;-74
2022/05/06 01:42:55;;;;;;;19.03;14.03;;;;;;;;;;4954299;28;20181;-74
2022/05/06 01:45:21;;;;;;;20.00;14.30;;;;;;;;;;4954655;28;20184;-74
2022/05/06 01:47:47;;;;;;;20.30;15.17;;;;;;;;;;4952991;28;20191;-74
2022/05/06 01:50:12;;;;;;;24.13;14.93;;;;;;;;;;4948958;28;20303;-74
2022/05/06 01:52:39;;;;;;;20.30;14.27;;;;;;;;;;4954953;28;20176;-74
2022/05/06 01:55:06;;;;;;;22.20;14.67;;;;;;;;;;4952664;28;20316;-74
2022/05/06 01:57:31;;;;;;;17.23;13.93;;;;;;;;;;4952334;28;20183;-74
2022/05/06 01:59:56;;;;;;;19.77;14.97;;;;;;;;;;4960330;28;20288;-74
2022/05/06 02:02:21;;;;;;;20.17;15.33;;;;;;;;;;4953838;28;20182;-74
2022/05/06 02:07:30;;;;;;;19.90;14.83;;;;;;;;;;4947578;28;20205;-74
2022/05/06 02:09:57;;;;;;;24.47;18.57;;;;;;;;;;4958399;28;20173;-74
2022/05/06 02:12:22;;;;;;;20.53;16.47;;;;;;;;;;4952250;28;20178;-74
2022/05/06 02:14:47;;;;;;;23.73;16.70;;;;;;;;;;4953013;28;20188;-74
2022/05/06 02:17:12;;;;;;;22.23;15.80;;;;;;;;;;4953836;28;20198;-74
2022/05/06 02:19:42;;;;;;;19.60;15.63;;;;;;;;;;4953101;28;20174;-74
2022/05/06 02:22:07;;;;;;;22.77;16.67;;;;;;;;;;4961771;28;20251;-74
2022/05/06 02:24:32;;;;;;;23.90;16.50;;;;;;;;;;4951554;28;20187;-74
2022/05/06 02:26:57;;;;;;;21.10;16.43;;;;;;;;;;4953224;28;20209;-74
2022/05/06 02:29:22;;;;;;;22.47;15.87;;;;;;;;;;4956073;28;20209;-73
2022/05/06 02:34:32;;;;;;;21.63;15.37;;;;;;;;;;4955560;28;20239;-74
2022/05/06 02:36:57;;;;;;;19.63;15.33;;;;;;;;;;4953479;28;20213;-74
2022/05/06 02:39:22;;;;;;;21.73;16.20;;;;;;;;;;4954027;28;20176;-74
2022/05/06 02:41:47;;;;;;;19.13;16.20;;;;;;;;;;4951347;28;20272;-74
2022/05/06 02:44:13;;;;;;;23.20;16.07;;;;;;;;;;4958195;28;20292;-74
2022/05/06 02:46:38;;;;;;;21.87;16.17;;;;;;;;;;4957812;28;20208;-74
2022/05/06 02:49:03;;;;;;;23.67;17.60;;;;;;;;;;4951920;28;20177;-74
2022/05/06 02:51:29;;;;;;;21.47;15.37;;;;;;;;;;4953832;28;20186;-74
2022/05/06 02:53:56;;;;;;;24.10;17.67;;;;;;;;;;4949801;28;20182;-74
2022/05/06 02:56:21;;;;;;;22.20;15.87;;;;;;;;;;4962747;28;20205;-74
2022/05/06 02:58:46;;;;;;;19.83;14.90;;;;;;;;;;4947246;28;20229;-74
2022/05/06 03:01:11;;;;;;;23.90;16.27;;;;;;;;;;4953318;28;20285;-74
2022/05/06 03:03:37;;;;;;;20.27;15.40;;;;;;;;;;4949674;28;20241;-74
2022/05/06 03:06:02;;;;;;;22.57;15.80;;;;;;;;;;4955896;28;20202;-74
2022/05/06 03:08:27;;;;;;;24.80;16.23;;;;;;;;;;4951433;28;20173;-74
2022/05/06 03:10:53;;;;;;;21.23;15.43;;;;;;;;;;4961311;28;20185;-74
2022/05/06 03:13:18;;;;;;;20.07;14.50;;;;;;;;;;4959144;28;20250;-74
2022/05/06 03:15:45;;;;;;;23.27;17.47;;;;;;;;;;4960005;28;20177;-74
2022/05/06 03:18:10;;;;;;;19.27;15.30;;;;;;;;;;4946872;28;20261;-74
2022/05/06 03:20:37;;;;;;;23.50;16.83;;;;;;;;;;4955071;28;20248;-74
2022/05/06 03:23:03;;;;;;;21.77;16.53;;;;;;;;;;4952161;28;20184;-74
2022/05/06 03:25:28;;;;;;;19.00;16.13;;;;;;;;;;4971022;28;20217;-74
2022/05/06 03:28:01;;;;;;;20.80;15.27;;;;;;;;;;4954060;28;20221;-74
2022/05/06 03:30:27;;;;;;;24.30;15.57;;;;;;;;;;4966009;28;20183;-74
2022/05/06 03:32:55;;;;;;;21.40;15.90;;;;;;;;;;4945826;28;20236;-74
2022/05/06 03:35:20;;;;;;;17.87;14.20;;;;;;;;;;4948566;28;20189;-74
2022/05/06 03:37:45;;;;;;;20.20;16.03;;;;;;;;;;4957981;28;20190;-74
2022/05/06 03:40:11;;;;;;;26.20;17.37;;;;;;;;;;4949660;28;20282;-74
2022/05/06 03:42:36;;;;;;;19.83;15.23;;;;;;;;;;4951666;28;20305;-74
2022/05/06 03:45:03;;;;;;;25.93;17.83;;;;;;;;;;4947714;28;20233;-74
2022/05/06 03:47:28;;;;;;;23.87;18.37;;;;;;;;;;4958835;28;20209;-74
2022/05/06 03:52:37;;;;;;;20.67;16.67;;;;;;;;;;4947617;28;20184;-74
2022/05/06 03:55:03;;;;;;;23.40;17.37;;;;;;;;;;4951588;28;20260;-74
2022/05/06 03:57:28;;;;;;;21.10;17.23;;;;;;;;;;4950522;28;20338;-74
2022/05/06 03:59:53;;;;;;;19.43;16.37;;;;;;;;;;4944165;28;20181;-74
2022/05/06 04:02:19;;;;;;;20.93;18.60;;;;;;;;;;4957420;28;20268;-74
2022/05/06 04:04:45;;;;;;;21.10;16.87;;;;;;;;;;4953656;28;20202;-74
2022/05/06 04:07:10;;;;;;;22.57;17.00;;;;;;;;;;4945956;28;20220;-74
2022/05/06 04:09:35;;;;;;;20.93;16.13;;;;;;;;;;4955389;28;20180;-74
2022/05/06 04:12:00;;;;;;;22.07;16.93;;;;;;;;;;4952168;28;20190;-74
2022/05/06 04:14:26;;;;;;;18.47;15.93;;;;;;;;;;4970988;28;20181;-74
2022/05/06 04:16:51;;;;;;;18.90;16.13;;;;;;;;;;4951723;28;20260;-74
2022/05/06 04:19:16;;;;;;;19.53;13.97;;;;;;;;;;4948179;28;20182;-74
2022/05/06 04:24:25;;;;;;;17.33;14.97;;;;;;;;;;4953008;28;20206;-74
2022/05/06 04:26:50;;;;;;;18.93;14.57;;;;;;;;;;4954670;28;20513;-74
2022/05/06 04:29:16;;;;;;;19.47;13.40;;;;;;;;;;4951950;28;20175;-74
2022/05/06 04:31:41;;;;;;;15.30;13.33;;;;;;;;;;4951224;28;20178;-74
2022/05/06 04:34:07;;;;;;;16.90;13.37;;;;;;;;;;4948477;28;20241;-76
2022/05/06 04:36:32;;;;;;;18.63;14.33;;;;;;;;;;4954997;28;20178;-78
2022/05/06 04:38:57;;;;;;;21.17;15.87;;;;;;;;;;4961380;28;20186;-78
2022/05/06 04:41:23;;;;;;;21.23;15.33;;;;;;;;;;4954040;28;20186;-78
2022/05/06 04:43:48;;;;;;;17.37;14.13;;;;;;;;;;4954421;28;20182;-78
2022/05/06 04:46:13;;;;;;;20.47;16.90;;;;;;;;;;4957932;28;20194;-78
2022/05/06 04:48:39;;;;;;;20.63;13.77;;;;;;;;;;4967807;28;20189;-78
2022/05/06 04:51:04;;;;;;;23.93;17.63;;;;;;;;;;4956909;28;20178;-78
2022/05/06 04:53:29;;;;;;;20.43;14.70;;;;;;;;;;4958585;28;20171;-78
2022/05/06 04:55:55;;;;;;;19.33;16.07;;;;;;;;;;4957002;28;20182;-78
2022/05/06 04:58:20;;;;;;;22.40;16.57;;;;;;;;;;4966891;28;20182;-78
2022/05/06 05:00:45;;;;;;;21.13;17.10;;;;;;;;;;4955542;28;20178;-78
2022/05/06 05:03:10;;;;;;;22.37;16.90;;;;;;;;;;4951314;28;20190;-77
2022/05/06 05:05:36;;;;;;;22.23;15.93;;;;;;;;;;4951536;28;20178;-78
2022/05/06 05:08:01;;;;;;;22.33;17.87;;;;;;;;;;4960630;28;20185;-77
2022/05/06 05:10:26;;;;;;;23.23;17.47;;;;;;;;;;4964583;28;20273;-78
2022/05/06 05:12:51;;;;;;;25.17;15.20;;;;;;;;;;4952376;28;20221;-78
2022/05/06 05:15:17;;;;;;;18.77;15.00;;;;;;;;;;4952700;28;20173;-77
2022/05/06 05:17:43;;;;;;;20.03;16.50;;;;;;;;;;4960243;28;20179;-78
2022/05/06 05:20:08;;;;;;;20.00;15.57;;;;;;;;;;4954471;28;20185;-78
2022/05/06 05:22:34;;;;;;;20.00;15.27;;;;;;;;;;4967923;28;20261;-78
2022/05/06 05:24:59;;;;;;;23.67;17.50;;;;;;;;;;4954134;28;20181;-78
2022/05/06 05:27:24;;;;;;;18.87;14.00;;;;;;;;;;4960884;28;20205;-78
2022/05/06 05:29:50;;;;;;;21.93;14.90;;;;;;;;;;4952003;29;20208;-78
2022/05/06 05:32:15;;;;;;;18.47;14.47;;;;;;;;;;4950222;28;20393;-79
2022/05/06 05:34:42;;;;;;;20.53;15.60;;;;;;;;;;4957160;28;20356;-78
2022/05/06 05:37:08;;;;;;;17.57;14.00;;;;;;;;;;4956239;28;20190;-78
2022/05/06 05:39:35;;;;;;;22.33;16.57;;;;;;;;;;4970250;28;20190;-78
2022/05/06 05:42:00;;;;;;;24.17;16.53;;;;;;;;;;4953782;28;20214;-78
2022/05/06 05:49:52;;;;;;;18.43;13.80;;;;;;;;;;4958954;28;20288;-78
2022/05/06 05:52:18;;;;;;;17.80;14.10;;;;;;;;;;4952726;28;20243;-78
2022/05/06 05:54:43;;;;;;;22.20;15.53;;;;;;;;;;4952351;28;20186;-78
2022/05/06 05:57:08;;;;;;;19.50;15.07;;;;;;;;;;4952961;28;20181;-77
2022/05/06 05:59:34;;;;;;;19.67;15.67;;;;;;;;;;4954525;28;20405;-77
2022/05/06 06:02:00;;;;;;;18.60;15.13;;;;;;;;;;4952588;28;20216;-78
2022/05/06 06:04:25;;;;;;;23.47;16.83;;;;;;;;;;4950971;28;20281;-78
2022/05/06 06:06:50;;;;;;;21.13;16.47;;;;;;;;;;4953647;28;20296;-78
2022/05/06 06:09:17;;;;;;;18.53;16.57;;;;;;;;;;4959246;28;20205;-78
2022/05/06 06:11:43;;;;;;;24.17;16.67;;;;;;;;;;4953008;28;20258;-78
2022/05/06 06:14:08;;;;;;;20.37;15.13;;;;;;;;;;4957343;28;20189;-78
2022/05/06 06:16:33;;;;;;;21.47;17.10;;;;;;;;;;4953767;28;20178;-78
2022/05/06 06:18:58;;;;;;;24.87;15.77;;;;;;;;;;4951264;28;20186;-77
2022/05/06 06:21:24;;;;;;;22.43;15.83;;;;;;;;;;4955873;28;20177;-78
2022/05/06 06:23:49;;;;;;;19.10;15.30;;;;;;;;;;4959295;28;20181;-77
2022/05/06 06:26:14;;;;;;;23.13;15.97;;;;;;;;;;4955275;28;20206;-78
2022/05/06 06:28:40;;;;;;;20.83;15.30;;;;;;;;;;4948620;28;20185;-78
2022/05/06 06:31:05;;;;;;;24.70;16.93;;;;;;;;;;4950495;28;20186;-78
2022/05/06 06:33:30;;;;;;;18.57;15.37;;;;;;;;;;4954097;28;20234;-78
2022/05/06 06:35:55;;;;;;;17.77;15.03;;;;;;;;;;4950597;28;20181;-78
2022/05/06 06:38:21;;;;;;;22.57;17.10;;;;;;;;;;4953960;28;20182;-78
2022/05/06 06:40:46;;;;;;;20.83;16.60;;;;;;;;;;4951476;28;20285;-78
2022/05/06 06:43:11;;;;;;;24.30;17.23;;;;;;;;;;4946248;28;20268;-78
2022/05/06 06:45:37;;;;;;;19.73;15.10;;;;;;;;;;4959608;28;20198;-78
2022/05/06 06:48:03;;;;;;;24.93;18.13;;;;;;;;;;4953489;28;20186;-78
2022/05/06 06:50:28;;;;;;;16.93;15.07;;;;;;;;;;4956312;28;20215;-78
2022/05/06 06:52:53;;;;;;;15.03;12.50;;;;;;;;;;4948571;28;20194;-78
2022/05/06 06:55:19;;;;;;;20.07;13.97;;;;;;;;;;4951352;28;20198;-78
2022/05/06 06:57:44;;;;;;;17.67;14.40;;;;;;;;;;4947955;28;20191;-78
2022/05/06 07:00:10;;;;;;;16.50;13.47;;;;;;;;;;4951217;28;20217;-78
2022/05/06 07:02:36;;;;;;;15.70;12.30;;;;;;;;;;4958617;28;20198;-78
2022/05/06 07:05:02;;;;;;;18.43;14.17;;;;;;;;;;4965532;28;20452;-78
2022/05/06 07:12:56;;;;;;;16.97;13.57;;;;;;;;;;4951606;28;20192;-78
2022/05/06 07:15:23;;;;;;;15.80;12.93;;;;;;;;;;4951511;28;20196;-78
2022/05/06 07:17:48;;;;;;;15.43;13.53;;;;;;;;;;4950055;28;20255;-78
2022/05/06 07:20:13;;;;;;;24.43;14.83;;;;;;;;;;4945920;28;20241;-78
2022/05/06 07:22:38;;;;;;;19.10;12.90;;;;;;;;;;4953333;28;20197;-78
2022/05/06 07:25:04;;;;;;;15.97;14.03;;;;;;;;;;4952295;28;20189;-78
2022/05/06 07:27:29;;;;;;;12.37;11.07;;;;;;;;;;4960566;28;20210;-78
2022/05/06 07:29:55;;;;;;;14.53;12.23;;;;;;;;;;4948662;28;20186;-78
2022/05/06 07:32:20;;;;;;;14.13;11.50;;;;;;;;;;4952536;28;20207;-78
2022/05/06 07:34:45;;;;;;;14.20;12.50;;;;;;;;;;4946198;28;20186;-78
2022/05/06 07:37:10;;;;;;;14.03;11.80;;;;;;;;;;4952481;28;20190;-78
2022/05/06 07:39:35;;;;;;;13.43;11.30;;;;;;;;;;4952542;28;20182;-78
2022/05/06 07:42:01;;;;;;;13.63;10.57;;;;;;;;;;4957678;28;20213;-78
2022/05/06 07:44:26;;;;;;;13.03;11.53;;;;;;;;;;4969669;28;20201;-78
2022/05/06 07:46:51;;;;;;;14.27;10.57;;;;;;;;;;4949953;28;20241;-78
2022/05/06 07:49:16;;;;;;;14.97;11.13;;;;;;;;;;4951051;28;20237;-78
2022/05/06 07:51:43;;;;;;;13.77;11.23;;;;;;;;;;4953603;28;20194;-78
2022/05/06 07:54:08;;;;;;;11.33;10.10;;;;;;;;;;4950995;28;20170;-78
2022/05/06 07:56:33;;;;;;;12.80;9.20;;;;;;;;;;4952709;28;20190;-78
2022/05/06 07:58:58;;;;;;;12.83;10.67;;;;;;;;;;4951397;28;20191;-78
2022/05/06 08:04:32;;;;;;;11.90;9.43;;;;;;;;;;4951552;28;20273;-78
2022/05/06 08:04:54;;;;;;;12.37;10.23;;;;;;;;;;4951750;28;20254;-78
2022/05/06 08:06:54;;;;;;;10.90;9.80;;;;;;;;;;4946728;28;20235;-78
2022/05/06 08:09:23;;;;;;;12.20;9.27;;;;;;;;;;4951857;28;20178;-78
2022/05/06 08:11:48;;;;;;;14.83;11.30;;;;;;;;;;4972974;28;20188;-78
2022/05/06 08:14:14;;;;;;;11.57;9.20;;;;;;;;;;4954617;28;20187;-78
2022/05/06 08:16:39;;;;;;;19.80;10.83;;;;;;;;;;4956831;28;20178;-78
2022/05/06 08:19:05;;;;;;;12.13;9.63;;;;;;;;;;4957280;28;20176;-78
2022/05/06 08:21:30;;;;;;;11.83;9.83;;;;;;;;;;4969943;28;20270;-78
2022/05/06 08:23:55;;;;;;;10.27;9.23;;;;;;;;;;4951489;28;20182;-78
2022/05/06 08:26:21;;;;;;;12.47;8.90;;;;;;;;;;4940470;28;20552;-78
2022/05/06 08:28:46;;;;;;;11.27;8.80;;;;;;;;;;4949199;28;20337;-78
2022/05/06 08:31:11;;;;;;;11.47;8.63;;;;;;;;;;4961207;28;20215;-78
2022/05/06 08:33:36;;;;;;;10.37;8.83;;;;;;;;;;4963556;28;20238;-77
2022/05/06 08:36:02;;;;;;;12.83;9.87;;;;;;;;;;4967983;28;20296;-78
2022/05/06 08:38:27;;;;;;;10.67;7.90;;;;;;;;;;4955693;28;20164;-78
2022/05/06 08:40:53;;;;;;;9.60;8.10;;;;;;;;;;4952585;28;20200;-78
2022/05/06 08:43:18;;;;;;;10.53;8.77;;;;;;;;;;4956806;28;20192;-78
2022/05/06 08:51:12;;;;;;;9.67;7.70;;;;;;;;;;4962900;28;20308;-78
2022/05/06 08:53:39;;;;;;;8.23;7.13;;;;;;;;;;4965995;28;20183;-78
2022/05/06 08:56:04;;;;;;;9.00;6.90;;;;;;;;;;4948694;29;20192;-78
2022/05/06 08:58:34;;;;;;;9.50;6.97;;;;;;;;;;4947998;28;20184;-78
2022/05/06 09:01:12;;;;;;;11.07;6.67;;;;;;;;;;4954688;28;20200;-78
2022/05/06 09:03:38;;;;;;;9.33;6.73;;;;;;;;;;4950793;28;20196;-78
2022/05/06 09:06:03;;;;;;;6.97;6.23;;;;;;;;;;4947703;28;20205;-78
2022/05/06 09:08:36;;;;;;;8.60;6.93;;;;;;;;;;4960179;28;20174;-78
2022/05/06 09:11:07;;;;;;;11.40;9.63;;;;;;;;;;4958857;28;20215;-78
2022/05/06 09:13:33;;;;;;;8.60;6.43;;;;;;;;;;4954278;28;20178;-78
2022/05/06 09:19:22;;;;;;;9.27;5.67;;;;;;;;;;4955856;28;20180;-78
2022/05/06 09:22:05;;;;;;;11.30;6.90;;;;;;;;;;4954272;28;20187;-78
2022/05/06 09:24:31;;;;;;;6.33;5.63;;;;;;;;;;4950414;28;20203;-78
2022/05/06 09:27:00;;;;;;;6.53;5.90;;;;;;;;;;4960471;28;20214;-77
2022/05/06 09:29:37;;;;;;;6.73;5.83;;;;;;;;;;4951422;28;20191;-77
2022/05/06 09:32:12;;;;;;;7.70;5.83;;;;;;;;;;4947954;28;20188;-79
2022/05/06 09:34:37;;;;;;;6.23;5.57;;;;;;;;;;4964690;28;20193;-78
2022/05/06 09:37:02;;;;;;;7.87;5.90;;;;;;;;;;4954982;28;20330;-78
2022/05/06 09:39:27;;;;;;;6.37;5.77;;;;;;;;;;4953488;28;20179;-78
2022/05/06 09:42:00;;;;;;;6.63;5.10;;;;;;;;;;4949701;28;20197;-78
2022/05/06 09:44:26;;;;;;;8.00;5.40;;;;;;;;;;4951009;28;20187;-78
2022/05/06 09:47:11;;;;;;;7.00;5.23;;;;;;;;;;4950145;28;20247;-78
2022/05/06 09:49:37;;;;;;;6.97;5.33;;;;;;;;;;4951423;28;20203;-78
2022/05/06 09:52:12;;;;;;;5.53;4.80;;;;;;;;;;4953856;28;20184;-78
2022/05/06 09:54:38;;;;;;;6.10;5.23;;;;;;;;;;4951266;28;20184;-77
2022/05/06 09:57:04;;;;;;;5.43;4.93;;;;;;;;;;4951992;28;20188;-78
2022/05/06 09:59:30;;;;;;;5.50;5.10;;;;;;;;;;4953151;28;20195;-77
2022/05/06 10:01:55;;;;;;;5.27;4.27;;;;;;;;;;4972364;28;20204;-77
2022/05/06 10:04:20;;;;;;;7.07;5.20;;;;;;;;;;4955375;28;20185;-77
2022/05/06 10:06:45;;;;;;;8.13;5.53;;;;;;;;;;4952503;28;20219;-78
2022/05/06 10:09:11;;;;;;;6.50;4.13;;;;;;;;;;4950736;28;20177;-78
2022/05/06 10:11:38;;;;;;;6.80;4.97;;;;;;;;;;4958069;28;20235;-78
2022/05/06 10:14:05;;;;;;;5.70;4.30;;;;;;;;;;4956100;28;20588;-77
2022/05/06 10:16:34;;;;;;;7.00;4.63;;;;;;;;;;4948026;28;20196;-78
2022/05/06 10:19:00;;;;;;;8.67;4.63;;;;;;;;;;4953640;28;20393;-78
2022/05/06 10:21:45;;;;;;;4.97;3.63;;;;;;;;;;4950993;28;20181;-77
2022/05/06 10:24:17;;;;;;;6.83;4.63;;;;;;;;;;4947533;28;20193;-78
2022/05/06 10:26:47;;;;;;;5.27;4.73;;;;;;;;;;4956433;28;20215;-78
2022/05/06 10:34:53;;;;;;;5.83;3.73;;;;;;;;;;4959323;28;20216;-78
2022/05/06 10:37:18;;;;;;;5.23;4.27;;;;;;;;;;4954565;28;20188;-78
2022/05/06 10:39:44;;;;;;;5.07;4.57;;;;;;;;;;4973559;28;20192;-77
2022/05/06 10:42:10;;;;;;;6.37;3.73;;;;;;;;;;4944845;28;21095;-78
2022/05/06 10:44:35;;;;;;;6.23;3.10;;;;;;;;;;4969784;28;20189;-78
2022/05/06 10:47:24;;;;;;;11.37;4.40;;;;;;;;;;4957392;28;20246;-78
2022/05/06 10:49:50;;;;;;;9.47;3.87;;;;;;;;;;4915460;28;20213;-78
2022/05/06 10:52:15;;;;;;;4.93;3.73;;;;;;;;;;4953043;28;20220;-78
2022/05/06 10:54:44;;;;;;;4.93;3.27;;;;;;;;;;4949461;28;20194;-78
2022/05/06 10:57:09;;;;;;;7.23;3.03;;;;;;;;;;4955259;28;20217;-78
2022/05/06 10:59:53;;;;;;;3.17;2.30;;;;;;;;;;4952055;28;20216;-78
2022/05/06 11:02:28;;;;;;;4.67;2.80;;;;;;;;;;4949791;28;20209;-78
2022/05/06 11:04:55;;;;;;;5.00;2.60;;;;;;;;;;4949370;28;20252;-78
2022/05/06 11:07:21;;;;;;;3.93;2.83;;;;;;;;;;4954397;28;20211;-78
2022/05/06 11:09:47;;;;;;;3.73;2.30;;;;;;;;;;4959409;28;20177;-78
2022/05/06 11:12:31;;;;;;;3.43;2.63;;;;;;;;;;4948077;28;20269;-78
2022/05/06 11:14:57;;;;;;;4.00;2.40;;;;;;;;;;4947967;29;20196;-78
2022/05/06 11:17:22;;;;;;;2.63;2.43;;;;;;;;;;4963134;28;20188;-78
2022/05/06 11:19:48;;;;;;;2.87;2.60;;;;;;;;;;4963795;28;20186;-78
2022/05/06 11:22:13;;;;;;;3.20;2.87;;;;;;;;;;4961712;28;20274;-78
2022/05/06 11:24:38;;;;;;;3.57;3.27;;;;;;;;;;4952959;28;20183;-77
2022/05/06 11:27:12;;;;;;;3.27;2.43;;;;;;;;;;4972209;28;20259;-78
2022/05/06 11:29:51;;;;;;;2.40;2.20;;;;;;;;;;4956780;28;20222;-77
2022/05/06 11:32:17;;;;;;;3.70;2.60;;;;;;;;;;4958074;28;20198;-78
2022/05/06 11:34:51;;;;;;;3.73;2.47;;;;;;;;;;4947796;28;20185;-78
2022/05/06 11:37:28;;;;;;;5.33;2.70;;;;;;;;;;4960732;28;20191;-78
2022/05/06 11:40:18;;;;;;;3.13;2.50;;;;;;;;;;4970692;28;20191;-78
2022/05/06 11:42:39;;;;;;;5.30;2.57;;;;;;;;;;4945723;28;20217;-78
2022/05/06 11:47:48;;;;;;;5.57;2.90;;;;;;;;;;4957153;28;20227;-77
2022/05/06 11:50:14;;;;;;;3.13;2.70;;;;;;;;;;4951764;28;20193;-78
2022/05/06 11:52:39;;;;;;;4.17;2.30;;;;;;;;;;4964970;28;20187;-78
2022/05/06 11:55:05;;;;;;;6.37;2.30;;;;;;;;;;4950792;28;20210;-78
2022/05/06 11:57:31;;;;;;;2.20;2.00;;;;;;;;;;4975529;28;20181;-78
2022/05/06 11:59:56;;;;;;;2.37;2.00;;;;;;;;;;4958579;28;20185;-78
2022/05/06 12:02:21;;;;;;;7.07;2.93;;;;;;;;;;4956024;28;20181;-78
2022/05/06 12:04:47;;;;;;;3.90;2.27;;;;;;;;;;4956516;28;20192;-77
2022/05/06 12:07:12;;;;;;;3.87;2.30;;;;;;;;;;4951776;28;20211;-78
2022/05/06 12:09:42;;;;;;;3.67;2.47;;;;;;;;;;4945825;28;20174;-78
2022/05/06 12:12:07;;;;;;;2.20;2.00;;;;;;;;;;4965851;28;20185;-77
2022/05/06 12:14:33;;;;;;;2.33;2.13;;;;;;;;;;4959289;28;20211;-78
2022/05/06 12:16:59;;;;;;;2.70;2.40;;;;;;;;;;4949208;28;20188;-77
2022/05/06 12:19:38;;;;;;;4.13;2.80;;;;;;;;;;4951687;28;20276;-78
2022/05/06 12:22:07;;;;;;;4.07;3.07;;;;;;;;;;4955166;28;20186;-78
2022/05/06 12:24:39;;;;;;;3.13;2.63;;;;;;;;;;4955935;28;20184;-78
2022/05/06 12:27:06;;;;;;;4.30;3.90;;;;;;;;;;4952860;28;20202;-78
2022/05/06 12:29:35;;;;;;;3.33;2.70;;;;;;;;;;4956372;28;20181;-77
2022/05/06 12:32:01;;;;;;;3.87;2.50;;;;;;;;;;4969033;28;20183;-77
2022/05/06 12:34:29;;;;;;;2.97;2.10;;;;;;;;;;4948683;28;20313;-77
2022/05/06 12:37:07;;;;;;;3.13;2.50;;;;;;;;;;4951312;28;20186;-77
2022/05/06 12:39:38;;;;;;;2.87;2.53;;;;;;;;;;4948447;28;20218;-78
2022/05/06 12:42:16;;;;;;;4.37;2.37;;;;;;;;;;4948458;28;20238;-77
2022/05/06 12:44:43;;;;;;;2.77;2.10;;;;;;;;;;4958857;28;20209;-77
2022/05/06 12:47:12;;;;;;;3.40;2.23;;;;;;;;;;4957741;28;20239;-77
2022/05/06 12:49:40;;;;;;;4.30;2.40;;;;;;;;;;4949420;28;20298;-78
2022/05/06 12:52:08;;;;;;;3.60;2.17;;;;;;;;;;4947036;28;20261;-79
2022/05/06 12:54:33;;;;;;;2.97;2.67;;;;;;;;;;4951705;28;20185;-78
2022/05/06 12:56:59;;;;;;;5.50;3.10;;;;;;;;;;4948854;28;20185;-78
2022/05/06 12:59:25;;;;;;;4.33;2.70;;;;;;;;;;4960917;28;20198;-78
2022/05/06 13:01:50;;;;;;;4.70;3.83;;;;;;;;;;4952489;28;20255;-78
2022/05/06 13:04:16;;;;;;;3.60;2.70;;;;;;;;;;4958093;28;20178;-78
2022/05/06 13:06:41;;;;;;;4.23;2.73;;;;;;;;;;4967973;28;20218;-79
2022/05/06 13:09:07;;;;;;;2.50;2.30;;;;;;;;;;4944055;28;20195;-79
2022/05/06 13:11:32;;;;;;;2.57;2.30;;;;;;;;;;4953010;28;20175;-78
2022/05/06 13:13:59;;;;;;;3.43;2.83;;;;;;;;;;4950617;28;20181;-78
2022/05/06 13:16:24;;;;;;;4.43;3.23;;;;;;;;;;4948651;28;20264;-78
2022/05/06 13:18:52;;;;;;;5.07;3.20;;;;;;;;;;4952539;28;20181;-78
2022/05/06 13:21:17;;;;;;;3.83;3.50;;;;;;;;;;4949231;28;20189;-78
2022/05/06 13:23:42;;;;;;;3.93;3.13;;;;;;;;;;4950797;28;20286;-78
2022/05/06 13:26:08;;;;;;;4.17;3.33;;;;;;;;;;4950351;28;20287;-78
2022/05/06 13:28:34;;;;;;;3.73;2.90;;;;;;;;;;4943690;28;20192;-78
2022/05/06 13:30:59;;;;;;;4.03;2.60;;;;;;;;;;4957187;28;22244;-78
2022/05/06 13:33:24;;;;;;;4.23;2.80;;;;;;;;;;4947160;28;20229;-79
2022/05/06 13:35:49;;;;;;;6.23;2.70;;;;;;;;;;4953419;28;20193;-78
2022/05/06 13:38:15;;;;;;;4.53;2.83;;;;;;;;;;4971269;28;20181;-78
2022/05/06 13:40:40;;;;;;;2.93;2.70;;;;;;;;;;4953773;28;20177;-78
2022/05/06 13:43:06;;;;;;;6.20;2.50;;;;;;;;;;4950247;28;20283;-78
2022/05/06 13:45:31;;;;;;;4.03;3.23;;;;;;;;;;4947464;28;20271;-78
2022/05/06 13:47:56;;;;;;;2.93;2.63;;;;;;;;;;4946611;28;20207;-78
2022/05/06 13:50:22;;;;;;;3.30;3.00;;;;;;;;;;4951732;28;20178;-78
2022/05/06 13:52:47;;;;;;;3.93;3.33;;;;;;;;;;4951496;28;20195;-78
2022/05/06 13:55:12;;;;;;;3.47;3.00;;;;;;;;;;4953169;28;20235;-78
2022/05/06 14:00:22;;;;;;;4.90;2.90;;;;;;;;;;4959384;28;20192;-78
2022/05/06 14:02:48;;;;;;;4.70;2.93;;;;;;;;;;4951707;28;20189;-78
2022/05/06 14:05:13;;;;;;;3.90;2.93;;;;;;;;;;4954999;28;20196;-78
2022/05/06 14:07:39;;;;;;;5.17;2.40;;;;;;;;;;4978773;28;20299;-78
2022/05/06 14:10:04;;;;;;;3.00;2.70;;;;;;;;;;4957452;28;20264;-78
2022/05/06 14:12:30;;;;;;;3.63;3.33;;;;;;;;;;4971644;28;20434;-78
2022/05/06 14:14:56;;;;;;;8.23;3.97;;;;;;;;;;4947996;28;20191;-78
2022/05/06 14:17:21;;;;;;;4.93;2.90;;;;;;;;;;4957415;28;20206;-78
2022/05/06 14:19:47;;;;;;;3.30;3.00;;;;;;;;;;4953323;28;20597;-78
2022/05/06 14:22:12;;;;;;;3.10;2.80;;;;;;;;;;4957884;28;20405;-78
2022/05/06 14:24:37;;;;;;;4.37;2.67;;;;;;;;;;4962018;28;20193;-78
2022/05/06 14:27:03;;;;;;;2.80;2.47;;;;;;;;;;4947988;28;20302;-78
2022/05/06 14:29:28;;;;;;;3.17;2.33;;;;;;;;;;4959760;28;20265;-78
2022/05/06 14:31:55;;;;;;;7.23;2.60;;;;;;;;;;4959407;28;20182;-78
2022/05/06 14:34:21;;;;;;;6.00;3.27;;;;;;;;;;4956486;28;20231;-78
2022/05/06 14:36:46;;;;;;;3.30;3.00;;;;;;;;;;4951281;29;20197;-78
2022/05/06 14:39:11;;;;;;;3.37;2.23;;;;;;;;;;4949221;28;20188;-78
2022/05/06 14:41:37;;;;;;;4.07;2.72;;;;;;;;;;4954755;28;20193;-78
2022/05/06 14:44:02;;;;;;;3.00;2.70;;;;;;;;;;4960905;28;20188;-78
2022/05/06 14:46:27;;;;;;;3.93;3.30;;;;;;;;;;4949939;28;20206;-78
2022/05/06 14:48:53;;;;;;;4.80;3.43;;;;;;;;;;4956659;28;20178;-78
2022/05/06 14:51:18;;;;;;;4.20;3.03;;;;;;;;;;4953210;28;20177;-78
2022/05/06 14:53:43;;;;;;;3.47;3.17;;;;;;;;;;4946583;28;20188;-78
2022/05/06 14:56:08;;;;;;;3.23;2.90;;;;;;;;;;4968264;28;20196;-78
2022/05/06 14:58:34;;;;;;;3.40;2.97;;;;;;;;;;4967264;28;20451;-78
2022/05/06 15:00:59;;;;;;;3.50;3.23;;;;;;;;;;4954557;28;20188;-78
2022/05/06 15:03:26;;;;;;;5.17;3.43;;;;;;;;;;4975834;28;20208;-78
2022/05/06 15:05:52;;;;;;;4.70;3.27;;;;;;;;;;4948940;28;20186;-78
2022/05/06 15:08:17;;;;;;;3.17;2.87;;;;;;;;;;4958987;28;20197;-78